Crescent City, FL

5:02 PM EDT on August 27, 2014 (GMT -0400)
Saint Augustine | Change Station
CLOSE
Current Station
Airport
Location: St. Augustine,
Elevation: 10 ft
Nearby Weather Stations
Active Advisory: Special Statement Active Notice: Public Information Statement

Elev 10 ft 29.96 °N, 81.34 °W | Updated 4 minutes ago

Clear
Clear
83 °F
Feels Like 85 °F
N
13
Wind Variable Wind from NNE

Today
High -- | Low -- °F
--% Chance of Precip.
Yesterday
High -- | Low -- °F
Precip. -- in
7:00 AM 7:53 PM
Waxing Crescent, 5% visible
Pressure 29.99 in
Visibility 10.0 miles
Clouds Clear
Heat Index 85 °F
Dew Point 67 °F
Humidity 58%
Rainfall 0.03 in
Snow Depth Not available.
UV 5 out of 12
Pollen 8.20 out of 12
Air Quality Not available.
Flu Activity Not available.
METAR KSGJ 272058Z 03011KT 10SM CLR 28/19 A2999 RMK AO2 SLP155 T02830194 55007

More Conditions Fewer Conditions

Pressure 29.99 in
Visibility 10.0 miles
Clouds Clear
Heat Index 85 °F
Dew Point 67 °F
Humidity 58%
Rainfall 0.03 in
Snow Depth Not available.
UV 5 out of 12
Pollen 8.20 out of 12
Air Quality Not available.
Flu Activity Not available.
METAR KSGJ 272058Z 03011KT 10SM CLR 28/19 A2999 RMK AO2 SLP155 T02830194 55007

More Conditions Fewer Conditions

10-Day Weather Forecast

Almanac

Astronomy

Aug. 27, 2014 Rise Set
Actual Time 7:00 AM EDT 7:53 PM EDT
Civil Twilight 6:36 AM EDT 8:18 PM EDT
Nautical Twilight 6:07 AM EDT 8:46 PM EDT
Astronomical Twilight 5:38 AM EDT 9:16 PM EDT
Moon 8:43 AM EDT 8:59 PM EDT
Length of Visible Light 13h 41m
Length of Day
12h 52m
Tomorrow will be 1m 40s shorter.
Waxing Crescent, 5% of the Moon is Illuminated
Today
Waxing Crescent
Sep 2
First Quarter
Sep 8
Full
Sep 15
Last Quarter
Sep 24
New

Today's Extremes

State Highs State Lows

Community

WunderPhotos

Upload Photos

1,747,785 photos uploaded!

Nearby

Snow Depth

Station Depth Elevation
No new snow has been reported.

Earthquake Activity

City Distance Mag. Time & Date
No recent earthquake activity has been reported nearby.
Minimum magnitude displayed is 2.5.

Coastal Water Temperatures

Place Temperature
Mayport (Bar Pilots Dock), FL 82.9 °F
Fernandina Beach, FL 82.9 °F
Trident Pier, FL 82.9 °F

Nearby Weather Stations